Nearby METAR Reports

 

KNFE - Fentress Naval, Virginia, USA
Distance from station: ENE 5mi, 7km
Updated: Tue, 22-Sep-2020 7:56pm EDT
Clear
Clear
 Wind from calm
Wind: Calm
Temperature: 55°F , 13°C
Dew Point: 46°F , 8°C
Humidity: 72%
Barometer: 30.05 inHg , 1017.6 hPa
Clouds: Clear
Visibility: 10 miles , 16 km
2020/09/22 23:56 KNFE 222356Z AUTO 00000KT 10SM CLR 13/08 A3005 RMK AO2 SLP178 T01330083 10211 20133 56003
KCPK - Chesapeake, Virginia, USA
Distance from station: W 6mi, 9km
Updated: Tue, 22-Sep-2020 8:35pm EDT
Clear
Clear
 Wind from calm
Wind: Calm
Temperature: 54°F , 12°C
Dew Point: 52°F , 11°C
Humidity: 94%
Barometer: 30.06 inHg , 1017.9 hPa
Clouds: Clear
Visibility: 10 miles , 16 km
2020/09/23 00:35 KCPK 230035Z AUTO 00000KT 10SM CLR 12/11 A3006 RMK AO2 T01190106
 
KNTU - Oceana Nas/Souce, Virginia, USA
Distance from station: NE 14mi, 23km
Updated: Tue, 22-Sep-2020 7:56pm EDT
Few Clouds
Few Clouds
 Wind from NW
Wind: NW 3 mph , 6 km/h
Temperature: 57°F , 14°C
Dew Point: 46°F , 8°C
Humidity: 67%
Barometer: 30.04 inHg , 1017.3 hPa
Clouds: Few Clouds
Visibility: 10 miles , 16 km
Cloud details: Few Clouds 30000 ft
2020/09/22 23:56 KNTU 222356Z 32003KT 10SM FEW300 14/08 A3004 RMK AO2 SLP175 T01440078 10222 20144 56003
KORF - Norfolk, Virginia, USA
Distance from station: N 15mi, 24km
Updated: Tue, 22-Sep-2020 7:51pm EDT
Clear
Clear
 Wind from W
Wind: W 3 mph , 6 km/h
Temperature: 64°F , 18°C
Dew Point: 46°F , 8°C
Humidity: 52%
Barometer: 30.05 inHg , 1017.6 hPa
Clouds: Clear
Visibility: 10 miles , 16 km
2020/09/22 23:51 KORF 222351Z 27003KT 10SM CLR 18/08 A3005 RMK AO2 SLP174 T01780083 10217 20178 56006
 
KPVG - Norfolk/Hampton, Virginia, USA
Distance from station: WNW 15mi, 24km
Updated: Fri, 18-Sep-2020 4:17pm EDT
NOT Current
Mostly cloudy
Mostly cloudy
 Wind from varies
Wind: varies 7 mph , 11 km/h, Gust: 16 mph , 26 km/h
Temperature: 73°F , 23°C
Dew Point: 64°F , 18°C
Humidity: 74%
Barometer: 29.90 inHg , 1012.5 hPa
Clouds: Mostly cloudy
Visibility: 10 miles , 16 km
Cloud details: Mostly cloudy 2600 ft
Mostly cloudy 6000 ft
2020/09/18 20:17 KPVG 182017Z AUTO VRB06G14KT 10SM BKN026 BKN060 23/18 A2990 RMK AO2 PNO $
KNGU - Norfolk Nas/Cham, Virginia, USA
Distance from station: N 16mi, 26km
Updated: Tue, 22-Sep-2020 7:59pm EDT
Few Clouds
Few Clouds
 Wind from W
Wind: W 5 mph , 7 km/h
Temperature: 64°F , 18°C
Dew Point: 46°F , 8°C
Humidity: 52%
Barometer: 30.06 inHg , 1017.9 hPa
Clouds: Few Clouds
Visibility: 10 miles , 16 km
Cloud details: Few Clouds 26000 ft
2020/09/22 23:59 KNGU 222359Z 27004KT 10SM FEW260 18/08 A3006 RMK AO2 SLP179 T01780078 10211 20178 56006 $
 
KSFQ - Suffolk, Virginia, USA
Distance from station: W 21mi, 34km
Updated: Tue, 22-Sep-2020 8:15pm EDT
Clear
Clear
 Wind from calm
Wind: Calm
Temperature: 55°F , 13°C
Dew Point: 52°F , 11°C
Humidity: 88%
Barometer: 30.07 inHg , 1018.3 hPa
Clouds: Clear
Visibility: 10 miles , 16 km
2020/09/23 00:15 KSFQ 230015Z AUTO 00000KT 10SM CLR 13/11 A3007 RMK AO2 T01320110
KONX - Currituck, North Carolina, USA
Distance from station: SSE 22mi, 36km
Updated: Tue, 22-Sep-2020 8:15pm EDT
Clear
Clear
 Wind from calm
Wind: Calm
Temperature: 57°F , 14°C
Dew Point: 52°F , 11°C
Humidity: 82%
Barometer: 30.06 inHg , 1017.9 hPa
Clouds: Clear
Visibility: 10 miles , 16 km
2020/09/23 00:15 KONX 230015Z AUTO 00000KT 10SM CLR 14/11 A3006 RMK AO2 T01420108
 
KLFI - Langley Afb/Hamp, Virginia, USA
Distance from station: NNW 28mi, 45km
Updated: Tue, 22-Sep-2020 7:56pm EDT
Clear
Clear
 Wind from WSW
Wind: WSW 5 mph , 7 km/h
Temperature: 57°F , 14°C
Dew Point: 50°F , 10°C
Humidity: 77%
Barometer: 30.05 inHg , 1017.6 hPa
Clouds: Clear
Visibility: 10 miles , 16 km
2020/09/22 23:56 KLFI 222356Z AUTO 25004KT 10SM CLR 14/10 A3005 RMK AO2 SLP182 T01420096 10206 20138 57006 $
KECG - Elizabeth City, North Carolina, USA
Distance from station: S 29mi, 46km
Updated: Tue, 22-Sep-2020 7:54pm EDT
Clear
Clear
 Wind from W
Wind: W 6 mph , 9 km/h
Temperature: 57°F , 14°C
Dew Point: 48°F , 9°C
Humidity: 72%
Barometer: 30.06 inHg , 1017.9 hPa
Clouds: Clear
Visibility: 10 miles , 16 km
2020/09/22 23:54 KECG 222354Z 26005KT 10SM CLR 14/09 A3006 RMK AO2 SLP179 T01440094 10228 20144 56002
 
KPHF - Newport News, Virginia, USA
Distance from station: NNW 35mi, 56km
Updated: Tue, 22-Sep-2020 7:54pm EDT
Clear
Clear
 Wind from calm
Wind: Calm
Temperature: 57°F , 14°C
Dew Point: 50°F , 10°C
Humidity: 77%
Barometer: 30.05 inHg , 1017.6 hPa
Clouds: Clear
Visibility: 10 miles , 16 km
2020/09/22 23:54 KPHF 222354Z AUTO 00000KT 10SM CLR 14/10 A3005 RMK AO2 SLP175 T01390100 10217 20133 56006
KFAF - Ft Eustis/Felker, Virginia, USA
Distance from station: NW 37mi, 60km
Updated: Tue, 22-Sep-2020 7:56pm EDT
Clear
Clear
 Wind from calm
Wind: Calm
Temperature: 63°F , 17°C
Dew Point: 52°F , 11°C
Humidity: 68%
Barometer: 30.03 inHg , 1016.9 hPa
Clouds: Clear
Visibility: 10 miles , 16 km
2020/09/22 23:56 KFAF 222356Z AUTO 00000KT 10SM CLR 17/11 A3003 RMK AO2 SLP172 T01670108 10203 20167 57007 $
 
KFKN - Franklin/J B Ros, Virginia, USA
Distance from station: W 38mi, 61km
Updated: Tue, 22-Sep-2020 8:15pm EDT
Clear
Clear
 Wind from calm
Wind: Calm
Temperature: 54°F , 12°C
Dew Point: 54°F , 12°C
Humidity: 100%
Barometer: 30.07 inHg , 1018.3 hPa
Clouds: Clear
Visibility: 10 miles , 16 km
2020/09/23 00:15 KFKN 230015Z AUTO 00000KT 10SM CLR 12/12 A3007 RMK AO2 T01210119
KJGG - Williamsburg, Virginia, USA
Distance from station: NW 47mi, 76km
Updated: Tue, 22-Sep-2020 8:15pm EDT
Clear
Clear
 Wind from calm
Wind: Calm
Temperature: 57°F , 14°C
Dew Point: 52°F , 11°C
Humidity: 82%
Barometer: 30.06 inHg , 1017.9 hPa
Clouds: Clear
Visibility: 10 miles , 16 km
2020/09/23 00:15 KJGG 230015Z AUTO 00000KT 10SM CLR 14/11 A3006 RMK AO1
 
KAKQ - Norfolk/Wakefld, Virginia, USA
Distance from station: WNW 48mi, 78km
Updated: Tue, 22-Sep-2020 7:54pm EDT
Clear
Clear
 Wind from calm
Wind: Calm
Temperature: 57°F , 14°C
Dew Point: 52°F , 11°C
Humidity: 82%
Barometer: 30.06 inHg , 1017.9 hPa
Clouds: Clear
Visibility: 10 miles , 16 km
2020/09/22 23:54 KAKQ 222354Z AUTO 00000KT 10SM CLR 14/11 A3006 RMK AO2 SLP178 T01390111 10217 20133 58006
KEDE - Edenton, North Carolina, USA
Distance from station: SSW 50mi, 80km
Updated: Tue, 22-Sep-2020 8:15pm EDT
Clear
Clear
 Wind from calm
Wind: Calm
Temperature: 61°F , 16°C
Dew Point: 54°F , 12°C
Humidity: 77%
Barometer: 30.08 inHg , 1018.6 hPa
Clouds: Clear
Visibility: 10 miles , 16 km
2020/09/23 00:15 KEDE 230015Z AUTO 00000KT 10SM CLR 16/12 A3008 RMK AO2 T01600115